Time;durP1;ratioP1;P1;durP2;ratioP2;P2;SDS_P1;SDS_P2;PMS_P1;PMS_P2;Temp;Humidity;BMP_temperature;BMP_pressure;BME280_temperature;BME280_humidity;BME280_pressure;Samples;Min_cycle;Max_cycle;Signal;HPM_P1;HPM_P2
2023/11/14 00:02:08;;;;;;;22.30;12.20;;;;;;;6.59;90.36;99813.84;5113085;28;20020;-26
2023/11/14 00:04:37;;;;;;;29.23;12.73;;;;;;;6.69;90.81;99813.59;5113167;28;20028;-27
2023/11/14 00:07:05;;;;;;;20.48;11.55;;;;;;;6.64;91.39;99809.66;5113043;28;20039;-26
2023/11/14 00:09:31;;;;;;;21.70;12.15;;;;;;;6.55;91.39;99809.88;5113535;28;20027;-26
2023/11/14 00:11:57;;;;;;;20.30;11.95;;;;;;;6.45;90.32;99815.38;5113052;28;20023;-26
2023/11/14 00:14:23;;;;;;;23.27;12.20;;;;;;;6.44;91.93;99813.75;5113120;28;20120;-26
2023/11/14 00:16:48;;;;;;;20.77;12.38;;;;;;;6.30;91.29;99811.84;5112919;28;20028;-39
2023/11/14 00:19:14;;;;;;;23.33;12.70;;;;;;;6.53;91.07;99825.94;5113229;28;20030;-38
2023/11/14 00:21:39;;;;;;;24.75;12.10;;;;;;;6.42;91.86;99829.78;5113126;28;20456;-39
2023/11/14 00:24:06;;;;;;;22.95;12.25;;;;;;;6.36;91.58;99840.22;5112994;28;20472;-38
2023/11/14 00:26:32;;;;;;;22.20;11.75;;;;;;;6.32;92.39;99826.56;5112054;28;20020;-40
2023/11/14 00:28:58;;;;;;;23.27;12.27;;;;;;;6.37;94.05;99833.94;5112849;28;20035;-40
2023/11/14 00:31:24;;;;;;;22.95;13.50;;;;;;;6.38;91.95;99831.13;5112803;28;20027;-40
2023/11/14 00:33:49;;;;;;;24.95;12.93;;;;;;;6.48;91.89;99825.63;5112761;28;20713;-40
2023/11/14 00:36:15;;;;;;;22.55;12.85;;;;;;;6.43;92.37;99827.97;5112637;28;20054;-38
2023/11/14 00:38:41;;;;;;;23.38;12.15;;;;;;;6.42;92.68;99836.91;5112539;28;20443;-39
2023/11/14 00:41:06;;;;;;;20.88;11.65;;;;;;;6.20;92.35;99826.09;5112622;28;20043;-40
2023/11/14 00:43:32;;;;;;;23.65;11.85;;;;;;;6.17;93.17;99825.63;5112390;28;20027;-40
2023/11/14 00:45:57;;;;;;;21.77;12.30;;;;;;;6.36;93.35;99824.38;5112388;28;20020;-39
2023/11/14 00:48:23;;;;;;;22.35;12.10;;;;;;;6.23;93.48;99817.84;5111813;28;20574;-40
2023/11/14 00:50:48;;;;;;;21.05;11.68;;;;;;;6.29;93.69;99826.06;5112089;28;20801;-40
2023/11/14 00:53:14;;;;;;;20.98;11.82;;;;;;;6.23;93.00;99815.19;5112213;28;20015;-40
2023/11/14 00:55:39;;;;;;;21.77;11.85;;;;;;;6.31;94.20;99819.63;5112345;28;20016;-39
2023/11/14 00:58:04;;;;;;;19.33;11.98;;;;;;;6.32;93.86;99812.50;5112190;28;20051;-41
2023/11/14 01:00:30;;;;;;;20.23;11.45;;;;;;;6.37;93.19;99813.63;5111943;28;20024;-40
2023/11/14 01:03:00;;;;;;;21.15;11.95;;;;;;;6.37;92.83;99816.25;5111738;28;20058;-40
2023/11/14 01:05:26;;;;;;;20.38;10.98;;;;;;;6.35;93.14;99818.25;5111922;28;20069;-39
2023/11/14 01:07:52;;;;;;;18.27;10.80;;;;;;;6.41;93.22;99814.09;5112089;28;20057;-40
2023/11/14 01:10:18;;;;;;;23.60;11.90;;;;;;;6.38;92.44;99804.72;5111361;28;20034;-40
2023/11/14 01:12:43;;;;;;;22.42;11.68;;;;;;;6.63;90.34;99807.19;5111544;28;20027;-40
2023/11/14 01:15:09;;;;;;;18.33;10.68;;;;;;;6.46;91.04;99815.22;5111987;28;20011;-38
2023/11/14 01:17:35;;;;;;;20.42;10.45;;;;;;;6.33;91.19;99817.63;5111665;28;20348;-39
2023/11/14 01:20:01;;;;;;;17.48;10.75;;;;;;;6.34;91.99;99810.50;5111778;28;20030;-38
2023/11/14 01:22:26;;;;;;;22.58;12.13;;;;;;;6.25;91.39;99815.03;5111476;28;20085;-39
2023/11/14 01:24:52;;;;;;;17.58;9.52;;;;;;;6.38;91.12;99817.13;5111552;28;20028;-38
2023/11/14 01:27:17;;;;;;;13.98;8.60;;;;;;;6.16;92.17;99811.59;5121368;27;20030;-37
2023/11/14 01:29:46;;;;;;;16.23;8.65;;;;;;;6.18;92.93;99829.91;5131898;27;20087;-38
2023/11/14 01:32:12;;;;;;;13.23;8.13;;;;;;;6.25;91.44;99834.34;5131923;27;20023;-38
2023/11/14 01:34:37;;;;;;;13.13;8.02;;;;;;;6.11;91.54;99823.66;5132151;27;20022;-37
2023/11/14 01:37:03;;;;;;;14.52;8.60;;;;;;;6.19;92.80;99829.75;5132108;27;20019;-38
2023/11/14 01:39:29;;;;;;;15.38;8.43;;;;;;;6.21;92.82;99834.88;5131841;27;20139;-37
2023/11/14 01:41:55;;;;;;;14.73;8.50;;;;;;;6.04;92.73;99823.56;5131578;27;20023;-39
2023/11/14 01:44:20;;;;;;;15.70;8.45;;;;;;;6.03;92.65;99828.00;5126031;27;20023;-39
2023/11/14 01:46:47;;;;;;;13.27;8.45;;;;;;;6.00;91.50;99823.06;5111268;28;20039;-36
2023/11/14 01:49:13;;;;;;;13.85;8.98;;;;;;;6.00;92.35;99820.44;5110926;28;20024;-36
2023/11/14 01:51:42;;;;;;;14.20;8.63;;;;;;;6.03;92.53;99827.19;5111158;28;20028;-39
2023/11/14 01:54:08;;;;;;;16.58;8.90;;;;;;;6.09;91.86;99823.84;5111255;28;20024;-37
2023/11/14 01:56:34;;;;;;;14.35;8.43;;;;;;;6.00;91.54;99822.25;5111164;28;20052;-36
2023/11/14 01:58:59;;;;;;;14.70;7.60;;;;;;;6.04;92.26;99816.44;5111084;28;20582;-37
2023/11/14 02:01:26;;;;;;;15.95;8.05;;;;;;;6.04;92.61;99805.06;5111172;28;20065;-37
2023/11/14 02:03:52;;;;;;;17.17;7.97;;;;;;;5.95;91.28;99809.53;5110807;28;20425;-38
2023/11/14 02:06:17;;;;;;;21.02;10.38;;;;;;;6.17;91.45;99796.56;5110749;28;20026;-38
2023/11/14 02:08:43;;;;;;;17.35;9.82;;;;;;;6.62;88.92;99793.13;5110944;28;20016;-38
2023/11/14 02:11:09;;;;;;;15.63;8.50;;;;;;;6.25;87.96;99778.03;5111118;28;20073;-26
2023/11/14 02:13:35;;;;;;;15.48;9.15;;;;;;;5.90;89.71;99780.13;5111331;28;20047;-25
2023/11/14 02:16:00;;;;;;;16.00;8.40;;;;;;;5.68;91.37;99795.75;5111208;28;20108;-25
2023/11/14 02:18:26;;;;;;;18.52;9.80;;;;;;;5.74;92.05;99798.72;5111117;28;20358;-26
2023/11/14 02:20:51;;;;;;;14.07;9.27;;;;;;;5.70;92.03;99794.78;5111113;28;20034;-26
2023/11/14 02:23:18;;;;;;;17.17;9.18;;;;;;;5.75;92.13;99797.69;5120755;27;20451;-25
2023/11/14 02:25:44;;;;;;;16.73;8.50;;;;;;;5.72;92.18;99793.59;5115163;28;20452;-25
2023/11/14 02:28:10;;;;;;;14.85;8.23;;;;;;;5.74;92.83;99782.88;5115075;28;20360;-25
2023/11/14 02:30:37;;;;;;;15.68;8.93;;;;;;;5.69;92.63;99796.56;5115186;28;20057;-25
2023/11/14 02:33:06;;;;;;;15.55;9.00;;;;;;;5.69;91.74;99791.28;5114831;28;20107;-26
2023/11/14 02:35:32;;;;;;;16.23;8.13;;;;;;;5.84;91.11;99796.69;5115210;28;20027;-25
2023/11/14 02:37:58;;;;;;;12.75;8.10;;;;;;;5.76;91.10;99805.47;5114869;28;20498;-26
2023/11/14 02:40:24;;;;;;;13.40;7.70;;;;;;;5.80;90.98;99800.66;5114866;28;20034;-26
2023/11/14 02:42:53;;;;;;;13.65;8.65;;;;;;;5.69;91.38;99807.13;5115108;28;20092;-25
2023/11/14 02:45:20;;;;;;;13.02;8.02;;;;;;;5.57;92.31;99801.41;5114967;28;20091;-25
2023/11/14 02:47:46;;;;;;;13.43;7.55;;;;;;;5.53;92.63;99807.19;5114681;28;20530;-26
2023/11/14 02:50:54;;;;;;;12.18;7.65;;;;;;;5.62;93.04;99803.53;5114698;28;20080;-25
2023/11/14 02:53:20;;;;;;;13.70;7.65;;;;;;;5.69;92.90;99809.75;5087159;28;20439;-25
2023/11/14 02:55:50;;;;;;;15.68;7.53;;;;;;;5.62;92.07;99804.34;5114751;28;20101;-26
2023/11/14 02:58:16;;;;;;;;;;;;;;;5.72;92.09;99809.44;5114687;28;20459;-25
2023/11/14 03:00:45;;;;;;;18.77;7.97;;;;;;;5.85;91.55;99793.06;5114196;28;19908;-26
2023/11/14 03:03:12;;;;;;;14.32;8.52;;;;;;;5.80;89.72;99790.91;5114466;28;20051;-25
2023/11/14 03:05:38;;;;;;;14.98;8.07;;;;;;;5.70;90.22;99786.84;5114552;28;20039;-26
2023/11/14 03:08:04;;;;;;;15.85;8.57;;;;;;;6.03;90.27;99787.53;5114420;28;20038;-25
2023/11/14 03:10:32;;;;;;;14.48;8.20;;;;;;;6.06;88.12;99789.84;5114070;28;20032;-26
2023/11/14 03:12:58;;;;;;;15.85;8.38;;;;;;;6.09;89.52;99793.97;5114056;28;20027;-26
2023/11/14 03:15:26;;;;;;;12.45;7.57;;;;;;;5.97;89.23;99801.44;5114082;28;20024;-26
2023/11/14 03:17:54;;;;;;;12.75;8.07;;;;;;;5.75;89.74;99798.53;5113643;28;20512;-26
2023/11/14 03:20:20;;;;;;;13.40;8.05;;;;;;;5.40;89.82;99790.03;5113893;28;20062;-26
2023/11/14 03:22:46;;;;;;;14.45;8.40;;;;;;;5.83;91.10;99805.63;5113587;28;21135;-26
2023/11/14 03:25:13;;;;;;;13.73;7.68;;;;;;;5.67;91.19;99803.84;5113784;28;20024;-26
2023/11/14 03:27:39;;;;;;;12.35;7.97;;;;;;;5.59;90.68;99804.69;5114185;28;20138;-26
2023/11/14 03:30:07;;;;;;;12.65;7.45;;;;;;;5.46;91.64;99805.22;5113811;28;20089;-26
2023/11/14 03:32:32;;;;;;;15.23;7.95;;;;;;;5.27;91.81;99801.16;5114022;28;20058;-26
2023/11/14 03:34:58;;;;;;;16.27;8.02;;;;;;;5.27;91.22;99802.94;5113009;28;20483;-26
2023/11/14 03:37:23;;;;;;;14.98;8.63;;;;;;;5.27;91.66;99816.97;5113786;28;20032;-26
2023/11/14 03:39:49;;;;;;;15.13;8.55;;;;;;;5.23;91.96;99815.63;5113719;28;20106;-26
2023/11/14 03:42:14;;;;;;;12.75;8.02;;;;;;;5.19;92.78;99824.06;5113452;28;20024;-26
2023/11/14 03:44:40;;;;;;;12.80;8.00;;;;;;;5.13;93.41;99819.47;5113737;28;20106;-26
2023/11/14 03:47:05;;;;;;;13.43;8.25;;;;;;;5.31;93.52;99817.44;5113328;28;20039;-26
2023/11/14 03:49:31;;;;;;;13.13;8.20;;;;;;;5.50;93.29;99813.63;5113375;28;20032;-25
2023/11/14 03:51:56;;;;;;;11.40;7.45;;;;;;;5.46;92.55;99814.94;5113683;27;20498;-25
2023/11/14 03:54:22;;;;;;;14.77;8.48;;;;;;;5.48;91.67;99827.00;5113531;28;20030;-26
2023/11/14 03:56:47;;;;;;;21.13;10.73;;;;;;;6.76;100.00;99844.47;5113336;28;20089;-25
2023/11/14 03:59:13;;;;;;;14.25;8.25;;;;;;;6.04;90.77;99852.63;5113168;28;20023;-25
2023/11/14 04:01:39;;;;;;;13.13;8.10;;;;;;;5.68;89.83;99853.03;5115946;27;20038;-25
2023/11/14 04:04:04;;;;;;;14.90;7.80;;;;;;;5.44;91.33;99853.88;5119642;27;20046;-25
2023/11/14 04:06:30;;;;;;;18.42;7.82;;;;;;;5.37;90.71;99853.75;5125145;27;20027;-25
2023/11/14 04:08:55;;;;;;;12.07;7.32;;;;;;;5.22;91.21;99850.13;5117772;27;20027;-25
2023/11/14 04:11:20;;;;;;;17.38;8.70;;;;;;;5.40;92.01;99855.22;5112990;28;20379;-26
2023/11/14 04:13:47;;;;;;;17.15;8.18;;;;;;;5.33;89.78;99870.91;5113166;28;20030;-26
2023/11/14 04:16:13;;;;;;;13.43;7.60;;;;;;;4.90;91.58;99857.03;5113318;28;20424;-26
2023/11/14 04:18:39;;;;;;;19.20;9.52;;;;;;;4.82;92.42;99852.59;5112205;28;20089;-26
2023/11/14 04:21:05;;;;;;;24.02;14.02;;;;;;;4.68;92.37;99861.13;5112417;28;20031;-25
2023/11/14 04:23:30;;;;;;;25.65;16.83;;;;;;;4.73;93.01;99853.56;5112610;28;20031;-25
2023/11/14 04:25:56;;;;;;;13.30;7.75;;;;;;;4.70;93.37;99861.78;5112135;28;20442;-26
2023/11/14 04:28:21;;;;;;;16.90;8.38;;;;;;;4.70;94.55;99859.16;5112586;28;20024;-26
2023/11/14 04:30:46;;;;;;;16.48;9.68;;;;;;;4.73;95.02;99863.28;5112151;28;20039;-26
2023/11/14 04:33:12;;;;;;;17.77;9.88;;;;;;;4.81;95.19;99864.13;5111999;28;20096;-25
2023/11/14 04:35:37;;;;;;;24.08;10.82;;;;;;;4.95;94.51;99849.47;5118159;27;20429;-25
2023/11/14 04:38:03;;;;;;;17.08;9.88;;;;;;;5.04;94.90;99853.75;5121400;27;20023;-26
2023/11/14 04:40:29;;;;;;;20.92;10.45;;;;;;;5.28;93.75;99855.56;5115124;27;20024;-25
2023/11/14 04:42:55;;;;;;;17.48;9.65;;;;;;;5.51;91.22;99854.06;5115612;27;20483;-25
2023/11/14 04:45:21;;;;;;;18.27;9.73;;;;;;;5.61;89.80;99838.84;5120928;27;20085;-25
2023/11/14 04:47:47;;;;;;;15.77;9.95;;;;;;;5.40;90.89;99836.75;5120206;27;20072;-25
2023/11/14 04:50:12;;;;;;;20.92;9.48;;;;;;;5.44;92.42;99840.69;5118336;27;20031;-26
2023/11/14 04:52:38;;;;;;;21.70;9.65;;;;;;;5.33;91.15;99828.69;5117587;27;20024;-25
2023/11/14 04:55:04;;;;;;;27.80;10.48;;;;;;;5.63;89.21;99821.00;5112988;27;20465;-26
2023/11/14 04:57:31;;;;;;;23.67;11.32;;;;;;;5.76;87.37;99826.59;5122463;27;20015;-26
2023/11/14 04:59:56;;;;;;;22.13;10.55;;;;;;;5.22;89.59;99821.09;5126114;27;20035;-26
2023/11/14 05:02:23;;;;;;;21.33;10.57;;;;;;;5.37;91.24;99831.78;5126781;27;20049;-25
2023/11/14 05:04:49;;;;;;;18.80;11.70;;;;;;;5.41;92.16;99830.47;5132460;27;20030;-26
2023/11/14 05:07:14;;;;;;;22.33;11.45;;;;;;;6.33;88.25;99838.75;5132282;27;20023;-26
2023/11/14 05:09:40;;;;;;;21.33;11.23;;;;;;;6.69;85.27;99837.41;5132250;27;20098;-26
2023/11/14 05:12:06;;;;;;;23.23;10.80;;;;;;;6.83;82.79;99832.19;5132661;27;20021;-26
2023/11/14 05:14:31;;;;;;;26.58;11.32;;;;;;;7.10;81.31;99845.00;5132117;27;20441;-26
2023/11/14 05:16:57;;;;;;;19.23;10.70;;;;;;;7.49;79.86;99844.81;5131706;27;20027;-26
2023/11/14 05:19:23;;;;;;;22.60;12.63;;;;;;;7.57;78.28;99843.91;5131224;27;20019;-27
2023/11/14 05:21:50;;;;;;;21.75;10.98;;;;;;;7.82;77.49;99855.91;5131801;27;20016;-26
2023/11/14 05:24:15;;;;;;;22.02;10.65;;;;;;;7.94;76.70;99868.69;5131870;27;20034;-26
2023/11/14 05:26:41;;;;;;;22.05;11.05;;;;;;;7.99;76.27;99861.00;5131942;27;20031;-27
2023/11/14 05:29:06;;;;;;;30.60;12.50;;;;;;;8.16;76.02;99859.81;5132175;27;20080;-27
2023/11/14 05:31:35;;;;;;;25.65;12.73;;;;;;;8.58;74.18;99850.31;5131835;27;20539;-26
2023/11/14 05:34:01;;;;;;;26.45;11.88;;;;;;;8.80;73.37;99860.97;5132220;27;20804;-26
2023/11/14 05:36:27;;;;;;;20.30;11.07;;;;;;;8.85;73.17;99871.00;5132181;27;20096;-27
2023/11/14 05:38:53;;;;;;;21.10;11.57;;;;;;;8.99;72.59;99875.44;5132057;27;20561;-26
2023/11/14 05:41:18;;;;;;;25.15;11.50;;;;;;;9.26;72.58;99879.16;5132032;27;20102;-27
2023/11/14 05:43:44;;;;;;;23.98;11.30;;;;;;;10.51;87.92;99888.13;5131944;27;20114;-26
2023/11/14 05:46:10;;;;;;;25.48;10.30;;;;;;;10.60;76.23;99890.59;5131529;27;20027;-26
2023/11/14 05:48:35;;;;;;;19.45;9.55;;;;;;;10.72;71.75;99887.16;5131372;27;20043;-26
2023/11/14 05:51:02;;;;;;;15.85;8.48;;;;;;;11.05;70.53;99878.41;5131421;27;20026;-26
2023/11/14 05:53:27;;;;;;;12.43;7.55;;;;;;;11.36;72.70;99884.97;5131860;27;20068;-28
2023/11/14 05:55:53;;;;;;;13.00;6.78;;;;;;;11.60;73.31;99866.75;5131757;28;20477;-26
2023/11/14 05:58:18;;;;;;;14.10;7.18;;;;;;;11.77;66.97;99865.28;5131216;27;20144;-27
2023/11/14 06:00:44;;;;;;;9.30;6.30;;;;;;;12.29;65.06;99871.50;5131701;28;20076;-28
2023/11/14 06:03:09;;;;;;;9.82;6.20;;;;;;;12.73;63.08;99887.72;5132147;28;20079;-27
2023/11/14 06:05:34;;;;;;;15.73;7.50;;;;;;;13.20;61.86;99884.75;5105078;28;20020;-28
2023/11/14 06:08:01;;;;;;;8.18;5.35;;;;;;;13.50;59.22;99892.97;5106806;28;20023;-26
2023/11/14 06:10:26;;;;;;;7.20;5.00;;;;;;;13.51;58.51;99883.91;5111884;28;20468;-27
2023/11/14 06:12:51;;;;;;;10.73;4.75;;;;;;;13.91;57.27;99885.38;5111766;28;20023;-27
2023/11/14 06:15:17;;;;;;;10.05;4.90;;;;;;;13.98;56.89;99886.94;5123770;28;20065;-27
2023/11/14 06:17:44;;;;;;;10.77;5.15;;;;;;;14.00;56.36;99884.88;5131191;28;20102;-29
2023/11/14 06:20:11;;;;;;;11.38;5.30;;;;;;;14.39;56.12;99893.50;5132122;28;20356;-27
2023/11/14 06:22:37;;;;;;;10.82;5.13;;;;;;;14.63;54.68;99889.09;5112420;28;20415;-28
2023/11/14 06:25:03;;;;;;;9.68;5.70;;;;;;;14.97;53.32;99877.91;5111599;28;20023;-28
2023/11/14 06:27:29;;;;;;;10.05;5.30;;;;;;;15.30;52.08;99877.38;5110642;28;20527;-28
2023/11/14 06:29:56;;;;;;;11.02;5.45;;;;;;;15.43;51.11;99876.38;5110763;28;20182;-28
2023/11/14 06:32:22;;;;;;;10.18;5.45;;;;;;;15.38;51.57;99871.72;5111121;28;20031;-27
2023/11/14 06:34:47;;;;;;;9.65;5.10;;;;;;;15.03;51.90;99877.00;5110815;28;20024;-27
2023/11/14 06:37:13;;;;;;;9.77;4.93;;;;;;;15.42;51.47;99880.06;5111180;28;20034;-27
2023/11/14 06:39:39;;;;;;;12.05;6.85;;;;;;;15.85;50.19;99867.41;5110890;28;20027;-27
2023/11/14 06:42:06;;;;;;;36.03;20.08;;;;;;;16.11;48.85;99866.91;5110758;28;20112;-27
2023/11/14 06:44:32;;;;;;;12.20;6.38;;;;;;;16.26;48.20;99877.16;5110897;28;20026;-28
2023/11/14 06:46:57;;;;;;;11.50;5.78;;;;;;;16.58;48.08;99879.34;5110814;28;20136;-27
2023/11/14 06:49:23;;;;;;;9.23;5.70;;;;;;;16.58;46.87;99884.72;5110657;28;20028;-27
2023/11/14 06:51:50;;;;;;;12.40;5.50;;;;;;;16.79;47.24;99894.81;5111344;28;20016;-27
2023/11/14 06:54:16;;;;;;;14.00;6.30;;;;;;;16.98;46.49;99905.38;5111563;28;20012;-29
2023/11/14 06:56:42;;;;;;;8.93;5.07;;;;;;;17.21;45.14;99893.72;5111664;28;20022;-29
2023/11/14 06:59:07;;;;;;;9.93;5.38;;;;;;;17.52;45.29;99896.88;5111633;28;20023;-30
2023/11/14 07:01:32;;;;;;;10.63;6.35;;;;;;;17.90;44.10;99895.31;5111442;28;20030;-27
2023/11/14 07:03:58;;;;;;;15.40;9.85;;;;;;;17.67;44.26;99898.97;5110879;28;20509;-29
2023/11/14 07:06:24;;;;;;;24.40;13.27;;;;;;;18.02;43.39;99897.91;5111078;28;20020;-28
2023/11/14 07:08:52;;;;;;;12.00;6.35;;;;;;;17.82;43.70;99893.00;5110455;28;20020;-27
2023/11/14 07:11:18;;;;;;;10.47;5.60;;;;;;;18.20;42.97;99894.06;5113689;28;20019;-27
2023/11/14 07:13:44;;;;;;;13.10;5.82;;;;;;;17.83;43.50;99890.06;5114008;28;20077;-28
2023/11/14 07:16:10;;;;;;;14.40;5.80;;;;;;;18.26;42.72;99893.06;5114432;28;20023;-27
2023/11/14 07:18:37;;;;;;;9.27;4.80;;;;;;;18.41;42.71;99890.59;5113883;28;20475;-27
2023/11/14 07:21:03;;;;;;;8.00;4.95;;;;;;;18.76;42.06;99894.72;5114053;28;20035;-28
2023/11/14 07:23:29;;;;;;;8.88;5.45;;;;;;;18.93;40.40;99875.78;5114200;28;20141;-28
2023/11/14 07:25:54;;;;;;;9.98;5.70;;;;;;;19.30;40.83;99875.81;5114445;28;20016;-27
2023/11/14 07:28:20;;;;;;;15.73;7.60;;;;;;;19.57;39.76;99883.03;5113871;28;20145;-28
2023/11/14 07:30:47;;;;;;;10.70;6.60;;;;;;;19.80;39.79;99878.34;5114072;28;20023;-27
2023/11/14 07:33:14;;;;;;;12.57;6.00;;;;;;;19.86;38.95;99880.84;5114013;28;20027;-29
2023/11/14 07:35:40;;;;;;;12.88;5.88;;;;;;;19.47;39.85;99878.38;5114124;28;20053;-28
2023/11/14 07:38:06;;;;;;;11.25;6.10;;;;;;;19.27;39.67;99868.25;5113596;28;20031;-29
2023/11/14 07:40:32;;;;;;;10.90;6.20;;;;;;;19.62;39.53;99858.78;5113573;28;20019;-27
2023/11/14 07:43:02;;;;;;;12.80;6.28;;;;;;;19.70;39.51;99862.88;5113198;28;20068;-29
2023/11/14 07:45:28;;;;;;;8.07;5.57;;;;;;;19.91;38.79;99861.97;5113107;28;20407;-29
2023/11/14 07:47:54;;;;;;;10.25;6.30;;;;;;;20.04;38.90;99849.06;5113331;28;20040;-28
2023/11/14 07:50:20;;;;;;;11.55;5.45;;;;;;;19.95;37.79;99853.31;5113672;28;20035;-28
2023/11/14 07:52:45;;;;;;;9.80;5.45;;;;;;;19.60;39.20;99858.22;5114176;28;20019;-30
2023/11/14 07:55:11;;;;;;;11.35;5.65;;;;;;;18.68;41.14;99850.19;5114152;28;20467;-29
2023/11/14 07:57:37;;;;;;;9.23;4.95;;;;;;;19.41;40.05;99852.44;5113635;28;20027;-28
2023/11/14 08:00:07;;;;;;;9.85;5.43;;;;;;;19.94;39.67;99852.53;5113226;28;20019;-28
2023/11/14 08:02:32;;;;;;;;;;;;;;;20.54;38.14;99853.00;5113856;28;20034;-27
2023/11/14 08:04:57;;;;;;;9.55;5.22;;;;;;;20.70;37.39;99846.56;5113215;28;20002;-28
2023/11/14 08:07:23;;;;;;;8.40;5.70;;;;;;;20.50;37.46;99846.50;5112740;28;20106;-28
2023/11/14 08:09:49;;;;;;;10.05;5.80;;;;;;;20.62;37.70;99847.13;5113230;28;20031;-26
2023/11/14 08:12:14;;;;;;;10.35;5.90;;;;;;;20.71;37.13;99850.09;5112878;28;20514;-27
2023/11/14 08:14:40;;;;;;;9.45;5.82;;;;;;;20.52;37.46;99849.75;5112703;28;20015;-26
2023/11/14 08:17:05;;;;;;;9.52;6.13;;;;;;;20.59;37.32;99854.91;5112808;28;20559;-27
2023/11/14 08:19:30;;;;;;;14.45;5.95;;;;;;;20.81;36.59;99854.69;5112741;28;20023;-29
2023/11/14 08:22:03;;;;;;;11.93;6.70;;;;;;;20.84;37.22;99856.88;5112368;28;20023;-31
2023/11/14 08:24:29;;;;;;;10.20;6.53;;;;;;;20.78;36.35;99853.34;5112511;28;20024;-28
2023/11/14 08:26:54;;;;;;;13.77;7.40;;;;;;;20.66;37.28;99855.50;5112614;28;20024;-28
2023/11/14 08:29:20;;;;;;;12.73;7.20;;;;;;;21.01;37.01;99854.72;5112520;28;20135;-28
2023/11/14 08:31:46;;;;;;;9.98;7.15;;;;;;;21.01;36.70;99840.38;5112386;28;20051;-28
2023/11/14 08:34:11;;;;;;;10.65;6.43;;;;;;;21.37;35.93;99835.78;5112160;28;20016;-26
2023/11/14 08:36:40;;;;;;;9.23;6.35;;;;;;;21.65;36.21;99842.53;5112022;28;20098;-26
2023/11/14 08:39:09;;;;;;;8.90;6.38;;;;;;;21.54;35.43;99837.41;5094515;28;20030;-28
2023/11/14 08:41:35;;;;;;;11.25;6.68;;;;;;;21.86;35.61;99840.56;5112395;28;20027;-27
2023/11/14 08:44:00;;;;;;;9.73;6.10;;;;;;;21.97;34.72;99837.81;5112023;28;20034;-27
2023/11/14 08:46:26;;;;;;;12.73;6.70;;;;;;;22.02;34.82;99826.97;5111746;28;20031;-27
2023/11/14 08:48:52;;;;;;;11.45;6.72;;;;;;;21.77;34.53;99817.03;5112123;28;20424;-26
2023/11/14 08:51:18;;;;;;;10.20;6.28;;;;;;;22.02;34.10;99818.84;5111786;28;20069;-27
2023/11/14 08:53:43;;;;;;;11.15;6.32;;;;;;;21.30;34.68;99821.69;5111989;28;20053;-27
2023/11/14 08:56:09;;;;;;;9.30;6.40;;;;;;;21.15;36.02;99819.84;5111998;28;20023;-28
2023/11/14 08:58:36;;;;;;;9.68;6.47;;;;;;;21.14;35.83;99809.28;5111731;28;20382;-27
2023/11/14 09:01:01;;;;;;;10.45;6.30;;;;;;;21.26;35.76;99807.91;5111614;28;20043;-27
2023/11/14 09:03:27;;;;;;;12.13;5.80;;;;;;;21.43;34.78;99796.78;5111946;28;20054;-29
2023/11/14 09:05:52;;;;;;;11.35;6.28;;;;;;;20.97;36.06;99796.84;5111794;28;20047;-27
2023/11/14 09:08:18;;;;;;;10.63;6.35;;;;;;;21.20;35.01;99794.66;5111824;28;20135;-27
2023/11/14 09:10:44;;;;;;;13.35;6.30;;;;;;;19.85;36.70;99797.38;5112043;28;20459;-28
2023/11/14 09:13:11;;;;;;;9.90;5.82;;;;;;;19.41;38.06;99808.47;5111668;28;20102;-28
2023/11/14 09:15:40;;;;;;;9.93;5.90;;;;;;;19.02;38.66;99798.75;5111937;28;20384;-26
2023/11/14 09:18:07;;;;;;;11.13;6.10;;;;;;;19.42;38.71;99800.13;5111436;28;20028;-27
2023/11/14 09:20:32;;;;;;;11.35;5.88;;;;;;;19.17;38.13;99798.03;5111378;28;20260;-28
2023/11/14 09:22:57;;;;;;;7.95;5.70;;;;;;;19.56;38.05;99803.16;5111827;28;20035;-28
2023/11/14 09:25:23;;;;;;;8.60;5.53;;;;;;;19.57;38.12;99798.56;5111440;28;20027;-27
2023/11/14 09:27:48;;;;;;;13.65;6.18;;;;;;;20.01;37.75;99782.88;5111670;28;20403;-28
2023/11/14 09:30:14;;;;;;;17.15;6.75;;;;;;;19.67;38.39;99771.63;5111528;28;20498;-28
2023/11/14 09:32:40;;;;;;;14.70;6.75;;;;;;;19.72;38.15;99775.22;5110699;28;20024;-28
2023/11/14 09:35:07;;;;;;;11.07;6.05;;;;;;;20.40;36.51;99773.53;5111258;28;20499;-30
2023/11/14 09:37:32;;;;;;;15.18;6.35;;;;;;;20.72;36.87;99759.00;5111025;28;20020;-28
2023/11/14 09:39:57;;;;;;;9.85;6.00;;;;;;;20.23;36.23;99747.53;5111135;28;20084;-28
2023/11/14 09:42:23;;;;;;;13.30;6.55;;;;;;;19.48;38.00;99728.91;5111022;28;20027;-28
2023/11/14 09:44:49;;;;;;;14.55;6.40;;;;;;;19.71;37.54;99733.03;5111156;28;20019;-28
2023/11/14 09:47:15;;;;;;;9.35;6.35;;;;;;;20.16;37.35;99732.66;5111394;28;20056;-32
2023/11/14 09:49:42;;;;;;;13.98;7.03;;;;;;;20.07;37.58;99714.28;5111393;28;20032;-29
2023/11/14 09:52:11;;;;;;;13.50;7.20;;;;;;;19.82;37.37;99709.63;5111304;28;20061;-27
2023/11/14 09:54:38;;;;;;;13.73;6.90;;;;;;;19.90;37.92;99714.50;5111584;28;20034;-28
2023/11/14 09:57:05;;;;;;;13.20;6.80;;;;;;;18.60;40.37;99696.22;5111225;28;20102;-28
2023/11/14 09:59:34;;;;;;;15.90;6.72;;;;;;;19.05;39.92;99698.44;5111465;28;20125;-26
2023/11/14 10:01:59;;;;;;;12.82;6.00;;;;;;;19.31;39.67;99699.41;5111233;28;20031;-27
2023/11/14 10:04:25;;;;;;;13.73;5.85;;;;;;;19.90;38.11;99711.81;5111154;28;20040;-27
2023/11/14 10:06:51;;;;;;;19.55;6.97;;;;;;;20.43;37.53;99706.22;5111029;28;20027;-27
2023/11/14 10:09:18;;;;;;;15.88;6.82;;;;;;;20.63;37.64;99708.16;5111160;28;20027;-26
2023/11/14 10:11:47;;;;;;;16.45;6.22;;;;;;;20.07;37.31;99714.28;5110792;28;20028;-27
2023/11/14 10:14:14;;;;;;;19.58;6.70;;;;;;;19.98;37.15;99705.06;5110984;28;20421;-27
2023/11/14 10:16:40;;;;;;;16.65;6.10;;;;;;;20.19;37.64;99705.13;5110867;28;20027;-28
2023/11/14 10:19:13;;;;;;;13.38;5.88;;;;;;;19.80;37.65;99697.47;5110837;28;20020;-27
2023/11/14 10:21:39;;;;;;;9.02;5.32;;;;;;;19.21;38.50;99685.03;5110948;28;20119;-28
2023/11/14 10:24:15;;;;;;;11.50;5.13;;;;;;;19.63;37.91;99693.06;5110846;28;20157;-28
2023/11/14 10:26:51;;;;;;;6.75;4.95;;;;;;;20.02;37.82;99678.34;5110866;28;20023;-28
2023/11/14 10:29:20;;;;;;;9.23;5.50;;;;;;;20.22;37.78;99683.78;5110682;28;20050;-26
2023/11/14 10:31:46;;;;;;;;;;;;;;;20.90;36.47;99677.28;5111188;28;20106;-27
2023/11/14 10:34:33;;;;;;;7.35;4.00;;;;;;;20.24;37.06;99654.63;5110494;28;20050;-28
2023/11/14 10:37:00;;;;;;;7.45;4.90;;;;;;;19.82;37.32;99647.53;5110687;28;20046;-29
2023/11/14 10:39:26;;;;;;;8.50;4.88;;;;;;;19.54;38.73;99646.88;5110971;28;20549;-29
2023/11/14 10:41:52;;;;;;;6.43;4.45;;;;;;;19.85;38.25;99644.28;5111071;28;20043;-30
2023/11/14 10:44:19;;;;;;;7.20;4.63;;;;;;;19.87;38.07;99649.41;5113574;28;20023;-27
2023/11/14 10:46:52;;;;;;;7.68;4.28;;;;;;;19.46;38.73;99647.41;5114873;28;20059;-27
2023/11/14 10:49:23;;;;;;;7.38;4.28;;;;;;;19.32;39.31;99646.25;5114733;28;20034;-27
2023/11/14 10:51:50;;;;;;;7.70;4.32;;;;;;;19.46;39.47;99636.59;5114724;28;20027;-26
2023/11/14 10:54:16;;;;;;;9.57;5.18;;;;;;;19.53;39.59;99618.28;5114486;28;20019;-28
2023/11/14 10:56:42;;;;;;;8.48;4.90;;;;;;;19.24;40.03;99617.91;5114380;28;20028;-30
2023/11/14 10:59:10;;;;;;;6.90;4.70;;;;;;;19.43;39.56;99622.84;5114296;28;20039;-27
2023/11/14 11:01:46;;;;;;;10.10;4.90;;;;;;;19.92;38.84;99609.75;5114503;28;20088;-27
2023/11/14 11:04:16;;;;;;;7.40;4.57;;;;;;;19.64;40.20;99616.41;5114003;28;20452;-27
2023/11/14 11:06:44;;;;;;;6.85;4.68;;;;;;;19.62;39.67;99609.66;5114629;28;20066;-26
2023/11/14 11:09:10;;;;;;;8.35;4.63;;;;;;;19.83;39.19;99608.66;5114278;28;20053;-27
2023/11/14 11:11:40;;;;;;;6.93;4.65;;;;;;;20.05;38.66;99603.00;5114731;28;20023;-27
2023/11/14 11:14:10;;;;;;;11.15;5.00;;;;;;;20.16;38.94;99594.88;5114248;28;20407;-29
2023/11/14 11:16:49;;;;;;;7.78;4.40;;;;;;;19.65;39.76;99603.75;5113874;28;20019;-27
2023/11/14 11:19:25;;;;;;;6.07;4.63;;;;;;;20.21;38.50;99600.31;5114218;28;20499;-27
2023/11/14 11:22:06;;;;;;;9.68;4.93;;;;;;;20.74;37.97;99597.31;5113578;28;20027;-27
2023/11/14 11:24:32;;;;;;;6.43;4.55;;;;;;;20.94;37.68;99586.41;5113890;28;20027;-27
2023/11/14 11:27:12;;;;;;;8.50;5.45;;;;;;;21.13;37.26;99570.38;5114151;28;20027;-27